createdAt,value
2024-05-09T00:01:29.865Z,82.91
2024-05-09T00:06:32.838Z,86.57
2024-05-09T00:11:35.880Z,88.38
2024-05-09T00:16:38.694Z,89.14
2024-05-09T00:21:45.217Z,90.52
2024-05-09T00:26:48.879Z,92.56
2024-05-09T00:31:51.733Z,93.26
2024-05-09T00:36:55.247Z,94.04
2024-05-09T00:41:59.683Z,94.08
2024-05-09T00:47:03.514Z,94.78
2024-05-09T00:52:07.579Z,96.63
2024-05-09T00:57:10.572Z,97.53
2024-05-09T01:02:14.109Z,99.51
2024-05-09T01:07:17.119Z,100.00
2024-05-09T01:12:20.193Z,100.00
2024-05-09T01:17:23.303Z,100.00
2024-05-09T01:22:28.813Z,100.00
2024-05-09T01:27:32.293Z,100.00
2024-05-09T01:32:35.151Z,100.00
2024-05-09T01:37:37.961Z,100.00
2024-05-09T01:42:40.902Z,100.00
2024-05-09T01:47:43.884Z,100.00
2024-05-09T01:52:46.961Z,100.00
2024-05-09T01:57:49.897Z,100.00
2024-05-09T02:02:52.828Z,100.00
2024-05-09T02:07:56.151Z,100.00
2024-05-09T02:12:59.087Z,100.00
2024-05-09T02:18:02.236Z,100.00
2024-05-09T02:23:06.768Z,100.00
2024-05-09T02:28:10.355Z,100.00
2024-05-09T02:33:14.430Z,100.00
2024-05-09T02:38:18.090Z,100.00
2024-05-09T02:43:20.996Z,100.00
2024-05-09T02:48:24.189Z,100.00
2024-05-09T02:53:27.085Z,100.00
2024-05-09T02:58:29.983Z,100.00
2024-05-09T03:03:33.981Z,100.00
2024-05-09T03:08:37.134Z,100.00
2024-05-09T03:13:41.975Z,100.00
2024-05-09T03:18:45.447Z,100.00
2024-05-09T03:23:51.834Z,100.00
2024-05-09T03:28:55.366Z,100.00
2024-05-09T03:33:58.662Z,100.00
2024-05-09T03:39:01.546Z,100.00
2024-05-09T03:44:08.250Z,100.00
2024-05-09T03:49:11.566Z,100.00
2024-05-09T03:54:14.705Z,100.00
2024-05-09T03:59:17.591Z,100.00
2024-05-09T04:04:21.379Z,100.00
2024-05-09T04:09:24.403Z,100.00
2024-05-09T04:14:27.526Z,100.00
2024-05-09T04:19:30.603Z,100.00
2024-05-09T04:24:33.415Z,100.00
2024-05-09T04:29:37.678Z,100.00
2024-05-09T04:34:40.549Z,100.00
2024-05-09T04:39:43.231Z,100.00
2024-05-09T04:44:46.112Z,100.00
2024-05-09T04:49:48.986Z,100.00
2024-05-09T05:00:53.128Z,100.00
2024-05-09T05:05:56.080Z,100.00
2024-05-09T05:10:59.044Z,100.00
2024-05-09T05:16:02.660Z,100.00
2024-05-09T05:21:05.909Z,99.87
2024-05-09T05:26:08.783Z,96.29
2024-05-09T05:31:12.522Z,89.98
2024-05-09T05:36:16.352Z,83.68
2024-05-09T05:41:19.616Z,81.61
2024-05-09T05:46:22.512Z,78.79
2024-05-09T05:51:50.196Z,77.70
2024-05-09T05:56:52.891Z,74.12
2024-05-09T06:01:55.996Z,72.06
2024-05-09T06:07:01.139Z,70.76
2024-05-09T06:12:07.150Z,67.38
2024-05-09T06:17:10.347Z,66.49
2024-05-09T06:22:13.441Z,61.95
2024-05-09T06:27:18.871Z,60.15
2024-05-09T06:32:23.131Z,57.56
2024-05-09T06:37:43.500Z,56.44
2024-05-09T06:43:10.560Z,54.54
2024-05-09T06:48:22.712Z,52.87
2024-05-09T06:53:29.721Z,52.52
2024-05-09T06:58:39.363Z,51.32
2024-05-09T07:03:50.160Z,49.43
2024-05-09T07:09:00.310Z,49.11
2024-05-09T07:14:03.501Z,48.13
2024-05-09T07:19:07.453Z,48.09
2024-05-09T07:24:13.505Z,48.58
2024-05-09T07:29:18.796Z,47.46
2024-05-09T07:34:21.946Z,45.89
2024-05-09T07:39:25.411Z,44.35
2024-05-09T07:44:33.116Z,44.17
2024-05-09T07:55:51.617Z,43.12
2024-05-09T08:00:31.807Z,42.96
2024-05-09T08:05:38.454Z,42.10
2024-05-09T08:10:45.878Z,42.08
2024-05-09T08:15:52.003Z,42.49
2024-05-09T08:21:00.325Z,41.96
2024-05-09T08:26:16.032Z,40.91
2024-05-09T08:31:26.962Z,39.39
2024-05-09T08:36:29.993Z,39.51
2024-05-09T08:41:35.006Z,39.23
2024-05-09T08:46:38.444Z,38.70
2024-05-09T08:51:41.752Z,37.03
2024-05-09T08:56:48.358Z,36.81
2024-05-09T09:01:51.773Z,36.90
2024-05-09T09:06:58.132Z,35.35
2024-05-09T09:12:01.516Z,35.15
2024-05-09T09:17:15.448Z,33.67
2024-05-09T09:22:19.860Z,32.94
2024-05-09T09:27:22.812Z,31.88
2024-05-09T09:32:29.401Z,32.82
2024-05-09T09:37:32.752Z,33.38
2024-05-09T09:42:38.029Z,33.01
2024-05-09T09:47:46.739Z,33.31
2024-05-09T09:52:52.141Z,32.25
2024-05-09T09:57:56.656Z,31.03
2024-05-09T10:02:59.652Z,31.20
2024-05-09T10:08:08.618Z,30.75
2024-05-09T10:13:11.351Z,30.95
2024-05-09T10:18:15.975Z,30.38
2024-05-09T10:23:36.355Z,28.68
2024-05-09T10:28:45.061Z,29.40
2024-05-09T10:33:51.018Z,29.52
2024-05-09T10:38:55.615Z,29.23
2024-05-09T10:43:58.373Z,27.36
2024-05-09T10:49:04.276Z,26.72
2024-05-09T10:54:08.999Z,27.28
2024-05-09T10:59:13.099Z,27.82
2024-05-09T11:04:16.967Z,26.43
2024-05-09T11:09:20.443Z,26.61
2024-05-09T11:14:23.705Z,27.04
2024-05-09T11:19:34.196Z,27.08
2024-05-09T11:24:40.657Z,28.23
2024-05-09T11:29:45.755Z,27.44
2024-05-09T11:34:48.492Z,27.06
2024-05-09T11:39:51.569Z,26.70
2024-05-09T11:44:54.217Z,26.24
2024-05-09T11:49:56.971Z,26.57
2024-05-09T11:54:59.788Z,26.53
2024-05-09T12:00:04.358Z,27.12
2024-05-09T12:05:08.486Z,26.55
2024-05-09T12:10:16.788Z,27.17
2024-05-09T12:15:24.741Z,27.36
2024-05-09T12:20:35.298Z,27.34
2024-05-09T12:25:42.999Z,27.49
2024-05-09T12:30:51.754Z,27.63
2024-05-09T12:35:59.824Z,27.15
2024-05-09T12:41:02.835Z,26.84
2024-05-09T12:53:27.978Z,26.57
2024-05-09T12:58:31.697Z,26.83
2024-05-09T13:03:34.797Z,27.04
2024-05-09T13:08:38.120Z,26.59
2024-05-09T13:13:41.283Z,27.24
2024-05-09T13:18:44.590Z,26.87
2024-05-09T13:23:48.256Z,27.10
2024-05-09T13:28:50.924Z,26.65
2024-05-09T13:33:53.492Z,26.97
2024-05-09T13:38:57.374Z,27.09
2024-05-09T13:44:01.557Z,26.64
2024-05-09T13:49:05.601Z,27.38
2024-05-09T13:54:09.192Z,27.00
2024-05-09T13:59:12.749Z,27.32
2024-05-09T14:04:15.648Z,26.97
2024-05-09T14:09:18.587Z,27.33
2024-05-09T14:14:21.378Z,28.02
2024-05-09T14:19:26.169Z,27.24
2024-05-09T14:24:29.110Z,27.26
2024-05-09T14:29:33.718Z,27.21
2024-05-09T14:34:36.411Z,28.24
2024-05-09T14:39:39.159Z,29.57
2024-05-09T14:44:41.808Z,29.83
2024-05-09T14:49:44.854Z,30.19
2024-05-09T14:54:59.797Z,30.32
2024-05-09T15:00:06.908Z,30.52
2024-05-09T15:05:11.777Z,31.14
2024-05-09T15:10:26.247Z,31.56
2024-05-09T15:15:34.451Z,31.20
2024-05-09T15:20:37.899Z,31.56
2024-05-09T15:25:41.195Z,32.14
2024-05-09T15:30:46.237Z,32.78
2024-05-09T15:35:52.077Z,33.02
2024-05-09T15:40:55.062Z,33.09
2024-05-09T15:45:57.911Z,33.37
2024-05-09T15:51:00.759Z,33.68
2024-05-09T15:56:03.867Z,34.14
2024-05-09T16:01:07.248Z,34.54
2024-05-09T16:06:10.185Z,34.31
2024-05-09T16:11:14.956Z,34.46
2024-05-09T16:16:18.223Z,35.09
2024-05-09T16:21:20.972Z,35.44
2024-05-09T16:26:23.867Z,35.24
2024-05-09T16:31:27.004Z,35.54
2024-05-09T16:36:33.237Z,35.11
2024-05-09T16:41:36.702Z,35.21
2024-05-09T16:46:41.118Z,35.53
2024-05-09T16:51:43.764Z,35.81
2024-05-09T16:56:46.600Z,35.93
2024-05-09T17:01:49.582Z,36.16
2024-05-09T17:06:53.905Z,36.28
2024-05-09T17:11:56.638Z,36.10
2024-05-09T17:16:59.624Z,36.14
2024-05-09T17:22:02.517Z,36.28
2024-05-09T17:27:06.785Z,36.57
2024-05-09T17:32:09.809Z,37.32
2024-05-09T17:37:12.774Z,37.42
2024-05-09T17:42:15.768Z,37.69
2024-05-09T17:47:18.843Z,37.92
2024-05-09T17:52:21.708Z,38.29
2024-05-09T17:57:27.217Z,38.65
2024-05-09T18:02:30.084Z,38.72
2024-05-09T18:07:36.131Z,38.81
2024-05-09T18:12:39.029Z,39.31
2024-05-09T18:17:42.662Z,39.37
2024-05-09T18:22:45.355Z,39.78
2024-05-09T18:27:49.071Z,39.72
2024-05-09T18:32:52.428Z,40.24
2024-05-09T18:37:58.770Z,41.01
2024-05-09T18:43:01.901Z,41.93
2024-05-09T18:48:07.152Z,42.35
2024-05-09T18:53:13.148Z,42.79
2024-05-09T18:58:20.074Z,43.81
2024-05-09T19:03:24.756Z,44.00
2024-05-09T19:08:28.792Z,44.73
2024-05-09T19:13:32.004Z,44.50
2024-05-09T19:18:45.854Z,46.27
2024-05-09T19:23:52.265Z,47.91
2024-05-09T19:28:55.652Z,48.67
2024-05-09T19:33:58.627Z,49.03
2024-05-09T19:39:01.424Z,49.98
2024-05-09T19:44:04.380Z,49.36
2024-05-09T19:49:08.017Z,48.69
2024-05-09T19:54:11.001Z,49.06
2024-05-09T19:59:14.532Z,50.27
2024-05-09T20:04:17.405Z,53.03
2024-05-09T20:09:20.179Z,55.92
2024-05-09T20:14:23.990Z,55.32
2024-05-09T20:19:26.754Z,59.50
2024-05-09T20:24:29.515Z,59.38
2024-05-09T20:29:32.091Z,53.10
2024-05-09T20:34:35.670Z,55.83
2024-05-09T20:39:38.532Z,60.56
2024-05-09T20:44:41.294Z,66.89
2024-05-09T20:49:46.152Z,72.18
2024-05-09T20:54:48.958Z,74.56
2024-05-09T20:59:52.233Z,79.35
2024-05-09T21:04:54.996Z,81.87
2024-05-09T21:09:57.833Z,83.25
2024-05-09T21:15:00.482Z,71.04
2024-05-09T21:20:07.320Z,67.83
2024-05-09T21:25:12.893Z,73.71
2024-05-09T21:30:22.425Z,81.58
2024-05-09T21:35:33.541Z,86.79
2024-05-09T21:40:37.960Z,90.66
2024-05-09T21:45:42.298Z,92.46
2024-05-09T21:50:45.870Z,93.66
2024-05-09T21:55:48.651Z,94.63
2024-05-09T22:00:51.418Z,96.71
2024-05-09T22:05:54.502Z,89.52
2024-05-09T22:10:57.392Z,85.83
2024-05-09T22:16:02.309Z,84.97
2024-05-09T22:21:05.466Z,87.12
2024-05-09T22:26:08.206Z,91.52
2024-05-09T22:31:10.939Z,93.33
2024-05-09T22:36:13.720Z,95.73
2024-05-09T22:41:16.564Z,98.82
2024-05-09T22:46:19.388Z,100.00
2024-05-09T22:51:22.432Z,100.00
2024-05-09T22:56:29.248Z,100.00
2024-05-09T23:01:32.769Z,100.00
2024-05-09T23:06:35.438Z,100.00
2024-05-09T23:11:42.125Z,100.00
2024-05-09T23:16:45.084Z,100.00
2024-05-09T23:21:47.956Z,100.00
2024-05-09T23:26:51.617Z,100.00
2024-05-09T23:31:54.459Z,100.00
2024-05-09T23:36:57.216Z,100.00
2024-05-09T23:42:00.864Z,100.00
2024-05-09T23:47:03.892Z,100.00
2024-05-09T23:52:07.102Z,100.00
2024-05-09T23:57:09.836Z,100.00
